createdAt,value
2016-03-18T00:00:11.350Z,0
2016-03-18T00:01:11.383Z,0
2016-03-18T00:02:11.356Z,0
2016-03-18T00:03:11.373Z,0
2016-03-18T00:04:11.391Z,0
2016-03-18T00:05:11.425Z,0
2016-03-18T00:06:11.412Z,0
2016-03-18T00:07:11.436Z,0
2016-03-18T00:08:11.440Z,0
2016-03-18T00:09:11.473Z,0
2016-03-18T00:10:11.475Z,0
2016-03-18T00:11:11.479Z,0
2016-03-18T00:12:11.512Z,0
2016-03-18T00:13:11.515Z,0
2016-03-18T00:14:11.517Z,0
2016-03-18T00:15:11.536Z,0
2016-03-18T00:16:11.570Z,0
2016-03-18T00:17:11.558Z,0
2016-03-18T00:18:11.575Z,0
2016-03-18T00:19:11.593Z,0
2016-03-18T00:20:11.581Z,0
2016-03-18T00:21:11.646Z,0
2016-03-18T00:22:10.899Z,0
2016-03-18T00:23:11.621Z,0
2016-03-18T00:24:11.638Z,0
2016-03-18T00:25:11.672Z,0
2016-03-18T00:26:11.675Z,0
2016-03-18T00:27:11.677Z,0
2016-03-18T00:28:11.696Z,0
2016-03-18T00:29:11.699Z,0
2016-03-18T00:30:11.717Z,0
2016-03-18T00:31:11.722Z,0
2016-03-18T00:32:11.755Z,0
2016-03-18T00:33:11.758Z,0
2016-03-18T00:34:11.760Z,0
2016-03-18T00:35:11.810Z,0
2016-03-18T00:36:11.047Z,0
2016-03-18T00:37:11.800Z,0
2016-03-18T00:38:11.833Z,0
2016-03-18T00:39:11.836Z,0
2016-03-18T00:40:11.854Z,0
2016-03-18T00:41:11.841Z,0
2016-03-18T00:42:11.859Z,0
2016-03-18T00:43:11.862Z,0
2016-03-18T00:44:11.912Z,0
2016-03-18T00:45:11.883Z,0
2016-03-18T00:46:11.901Z,0
2016-03-18T00:47:11.154Z,0
2016-03-18T00:48:11.939Z,0
2016-03-18T00:49:11.942Z,0
2016-03-18T00:50:11.944Z,0
2016-03-18T00:51:11.978Z,0
2016-03-18T00:52:11.995Z,0
2016-03-18T00:53:11.998Z,0
2016-03-18T00:54:12.017Z,0
2016-03-18T00:55:12.003Z,0
2016-03-18T00:56:12.023Z,0
2016-03-18T00:57:12.056Z,0
2016-03-18T00:58:12.059Z,0
2016-03-18T00:59:12.062Z,0
2016-03-18T01:00:12.097Z,0
2016-03-18T01:01:12.083Z,0
2016-03-18T01:02:12.695Z,0
2016-03-18T01:03:12.119Z,0
2016-03-18T01:04:12.122Z,0
2016-03-18T01:05:12.110Z,0
2016-03-18T01:06:12.143Z,0
2016-03-18T01:07:12.213Z,0
2016-03-18T01:08:12.153Z,0
2016-03-18T01:09:12.171Z,0
2016-03-18T01:10:12.190Z,0
2016-03-18T01:11:12.208Z,0
2016-03-18T01:12:12.212Z,0
2016-03-18T01:13:12.214Z,0
2016-03-18T01:14:12.217Z,0
2016-03-18T01:15:12.266Z,0
2016-03-18T01:16:11.503Z,0
2016-03-18T01:17:12.287Z,0
2016-03-18T01:18:12.289Z,0
2016-03-18T01:19:12.292Z,0
2016-03-18T01:20:12.295Z,0
2016-03-18T01:21:12.329Z,0
2016-03-18T01:22:12.441Z,0
2016-03-18T01:23:12.319Z,0
2016-03-18T01:24:12.353Z,0
2016-03-18T01:25:12.355Z,0
2016-03-18T01:26:12.358Z,0
2016-03-18T01:27:12.377Z,0
2016-03-18T01:28:12.394Z,0
2016-03-18T01:29:12.397Z,0
2016-03-18T01:30:12.430Z,0
2016-03-18T01:31:12.433Z,0
2016-03-18T01:32:12.452Z,0
2016-03-18T01:33:12.454Z,0
2016-03-18T01:34:12.474Z,0
2016-03-18T01:35:12.460Z,0
2016-03-18T01:36:12.494Z,0
2016-03-18T01:37:12.496Z,0
2016-03-18T01:38:11.827Z,0
2016-03-18T01:39:12.502Z,0
2016-03-18T01:40:12.521Z,0
2016-03-18T01:41:12.570Z,0
2016-03-18T01:42:12.573Z,0
2016-03-18T01:43:12.607Z,0
2016-03-18T01:44:12.609Z,0
2016-03-18T01:45:12.612Z,0
2016-03-18T01:46:12.598Z,0
2016-03-18T01:47:12.617Z,0
2016-03-18T01:48:11.854Z,0
2016-03-18T01:49:12.638Z,0
2016-03-18T01:50:12.673Z,0
2016-03-18T01:51:12.644Z,0
2016-03-18T01:52:12.725Z,0
2016-03-18T01:53:12.681Z,0
2016-03-18T01:54:12.699Z,0
2016-03-18T01:55:12.717Z,0
2016-03-18T01:56:12.719Z,0
2016-03-18T01:57:12.739Z,0
2016-03-18T01:58:12.741Z,0
2016-03-18T01:59:12.791Z,0
2016-03-18T02:00:12.761Z,0
2016-03-18T02:01:12.780Z,0
2016-03-18T02:02:12.814Z,0
2016-03-18T02:03:12.786Z,0
2016-03-18T02:04:12.819Z,0
2016-03-18T02:05:12.838Z,0
2016-03-18T02:06:12.857Z,0
2016-03-18T02:07:12.891Z,0
2016-03-18T02:08:12.877Z,0
2016-03-18T02:09:12.880Z,0
2016-03-18T02:10:12.882Z,0
2016-03-18T02:11:12.901Z,0
2016-03-18T02:12:12.903Z,0
2016-03-18T02:13:12.907Z,0
2016-03-18T02:14:12.924Z,0
2016-03-18T02:15:12.959Z,0
2016-03-18T02:16:12.930Z,0
2016-03-18T02:17:12.965Z,0
2016-03-18T02:18:12.982Z,0
2016-03-18T02:19:12.984Z,0
2016-03-18T02:20:12.987Z,0
2016-03-18T02:21:13.022Z,0
2016-03-18T02:22:12.931Z,0
2016-03-18T02:23:13.043Z,0
2016-03-18T02:24:13.061Z,0
2016-03-18T02:25:13.047Z,0
2016-03-18T02:26:13.081Z,0
2016-03-18T02:27:13.069Z,0
2016-03-18T02:28:13.072Z,0
2016-03-18T02:29:12.980Z,0
2016-03-18T02:30:13.124Z,0
2016-03-18T02:31:13.111Z,0
2016-03-18T02:32:13.160Z,0
2016-03-18T02:33:13.163Z,0
2016-03-18T02:34:13.166Z,0
2016-03-18T02:35:13.152Z,0
2016-03-18T02:36:13.031Z,0
2016-03-18T02:37:13.315Z,0
2016-03-18T02:38:13.208Z,0
2016-03-18T02:39:13.210Z,0
2016-03-18T02:40:17.540Z,0
2016-03-18T02:41:13.223Z,0
2016-03-18T02:42:13.258Z,0
2016-03-18T02:43:13.245Z,0
2016-03-18T02:44:13.279Z,0
2016-03-18T02:45:13.265Z,0
2016-03-18T02:46:13.299Z,0
2016-03-18T02:47:13.286Z,0
2016-03-18T02:48:13.321Z,0
2016-03-18T02:49:13.307Z,0
2016-03-18T02:50:13.326Z,0
2016-03-18T02:51:13.329Z,0
2016-03-18T02:52:13.504Z,0
2016-03-18T02:53:13.350Z,0
2016-03-18T02:54:13.353Z,0
2016-03-18T02:55:13.403Z,0
2016-03-18T02:56:13.373Z,0
2016-03-18T02:57:13.423Z,0
2016-03-18T02:58:13.410Z,0
2016-03-18T02:59:13.428Z,0
2016-03-18T03:00:13.446Z,0
2016-03-18T03:01:13.449Z,0
2016-03-18T03:02:13.452Z,0
2016-03-18T03:03:13.485Z,0
2016-03-18T03:04:13.488Z,0
2016-03-18T03:05:13.476Z,0
2016-03-18T03:06:13.510Z,0
2016-03-18T03:07:13.544Z,0
2016-03-18T03:08:13.515Z,0
2016-03-18T03:09:13.533Z,0
2016-03-18T03:10:13.567Z,0
2016-03-18T03:11:13.571Z,0
2016-03-18T03:12:13.573Z,0
2016-03-18T03:13:13.576Z,0
2016-03-18T03:14:13.609Z,0
2016-03-18T03:15:12.846Z,0
2016-03-18T03:16:13.629Z,0
2016-03-18T03:17:13.618Z,0
2016-03-18T03:18:13.635Z,0
2016-03-18T03:19:13.638Z,0
2016-03-18T03:20:13.673Z,0
2016-03-18T03:21:13.676Z,0
2016-03-18T03:22:13.709Z,0
2016-03-18T03:23:13.681Z,0
2016-03-18T03:24:13.714Z,0
2016-03-18T03:25:13.717Z,0
2016-03-18T03:26:13.720Z,0
2016-03-18T03:27:13.753Z,0
2016-03-18T03:28:13.772Z,0
2016-03-18T03:29:13.759Z,0
2016-03-18T03:30:13.777Z,0
2016-03-18T03:31:13.795Z,0
2016-03-18T03:32:13.798Z,0
2016-03-18T03:33:13.816Z,0
2016-03-18T03:34:13.836Z,0
2016-03-18T03:35:13.822Z,0
2016-03-18T03:36:13.856Z,0
2016-03-18T03:37:13.858Z,0
2016-03-18T03:38:13.861Z,0
2016-03-18T03:39:13.863Z,0
2016-03-18T03:40:13.913Z,0
2016-03-18T03:41:13.885Z,0
2016-03-18T03:42:13.919Z,0
2016-03-18T03:43:13.937Z,0
2016-03-18T03:44:13.940Z,0
2016-03-18T03:45:14.052Z,0
2016-03-18T03:46:13.977Z,0
2016-03-18T03:47:13.979Z,0
2016-03-18T03:48:13.998Z,0
2016-03-18T03:49:13.969Z,0
2016-03-18T03:50:13.988Z,0
2016-03-18T03:51:14.006Z,0
2016-03-18T03:52:14.040Z,0
2016-03-18T03:53:14.026Z,0
2016-03-18T03:54:14.045Z,0
2016-03-18T03:55:14.048Z,0
2016-03-18T03:56:14.081Z,0
2016-03-18T03:57:14.069Z,0
2016-03-18T03:58:14.133Z,0
2016-03-18T03:59:14.136Z,0
2016-03-18T04:00:14.092Z,0
2016-03-18T04:01:14.126Z,0
2016-03-18T04:02:14.145Z,0
2016-03-18T04:03:14.163Z,0
2016-03-18T04:04:14.181Z,0
2016-03-18T04:05:14.153Z,0
2016-03-18T04:06:14.171Z,0
2016-03-18T04:07:14.193Z,0
2016-03-18T04:08:14.215Z,0
2016-03-18T04:09:14.217Z,0
2016-03-18T04:10:14.235Z,0
2016-03-18T04:11:14.254Z,0
2016-03-18T04:12:14.240Z,0
2016-03-18T04:13:14.259Z,0
2016-03-18T04:14:14.293Z,0
2016-03-18T04:15:14.281Z,0
2016-03-18T04:16:14.298Z,0
2016-03-18T04:17:14.317Z,0
2016-03-18T04:18:14.303Z,0
2016-03-18T04:19:14.322Z,0
2016-03-18T04:20:14.325Z,0
2016-03-18T04:21:14.343Z,0
2016-03-18T04:22:14.361Z,0
2016-03-18T04:23:14.379Z,0
2016-03-18T04:24:14.382Z,0
2016-03-18T04:25:14.416Z,0
2016-03-18T04:26:14.419Z,0
2016-03-18T04:27:14.421Z,0
2016-03-18T04:28:14.425Z,0
2016-03-18T04:29:14.427Z,0
2016-03-18T04:30:14.461Z,0
2016-03-18T04:31:14.479Z,0
2016-03-18T04:32:14.482Z,0
2016-03-18T04:33:14.515Z,0
2016-03-18T04:34:14.487Z,0
2016-03-18T04:35:14.506Z,0
2016-03-18T04:36:14.524Z,0
2016-03-18T04:37:14.526Z,0
2016-03-18T04:38:14.560Z,0
2016-03-18T04:39:14.578Z,0
2016-03-18T04:40:14.582Z,0
2016-03-18T04:41:14.568Z,0
2016-03-18T04:42:14.587Z,0
2016-03-18T04:43:14.573Z,0
2016-03-18T04:44:14.609Z,0
2016-03-18T04:45:14.611Z,0
2016-03-18T04:46:14.645Z,0
2016-03-18T04:47:14.459Z,0
2016-03-18T04:48:14.650Z,0
2016-03-18T04:49:14.669Z,0
2016-03-18T04:50:14.672Z,0
2016-03-18T04:51:14.674Z,0
2016-03-18T04:52:14.692Z,0
2016-03-18T04:53:14.694Z,0
2016-03-18T04:54:14.713Z,0
2016-03-18T04:55:14.716Z,0
2016-03-18T04:56:14.750Z,0
2016-03-18T04:57:14.783Z,0
2016-03-18T04:58:14.786Z,0
2016-03-18T04:59:14.024Z,4
2016-03-18T05:00:14.761Z,4
2016-03-18T05:01:14.638Z,0
2016-03-18T05:02:14.812Z,0
2016-03-18T05:03:14.815Z,4
2016-03-18T05:04:14.896Z,0
2016-03-18T05:05:14.852Z,4
2016-03-18T05:06:14.839Z,4
2016-03-18T05:07:14.717Z,4
2016-03-18T05:08:14.875Z,8
2016-03-18T05:09:14.862Z,8
2016-03-18T05:10:14.896Z,8
2016-03-18T05:11:14.899Z,8
2016-03-18T05:12:14.901Z,12
2016-03-18T05:13:14.968Z,16
2016-03-18T05:14:14.923Z,20
2016-03-18T05:15:14.942Z,20
2016-03-18T05:16:14.976Z,24
2016-03-18T05:17:14.947Z,28
2016-03-18T05:18:14.965Z,32
2016-03-18T05:19:15.000Z,36
2016-03-18T05:20:15.002Z,44
2016-03-18T05:21:15.020Z,48
2016-03-18T05:22:15.085Z,56
2016-03-18T05:23:15.025Z,64
2016-03-18T05:24:15.028Z,72
2016-03-18T05:25:15.077Z,80
2016-03-18T05:26:15.049Z,84
2016-03-18T05:27:15.066Z,96
2016-03-18T05:28:15.085Z,104
2016-03-18T05:29:15.104Z,120
2016-03-18T05:30:15.107Z,128
2016-03-18T05:31:15.109Z,144
2016-03-18T05:32:15.127Z,156
2016-03-18T05:33:15.146Z,172
2016-03-18T05:34:15.149Z,184
2016-03-18T05:35:15.152Z,196
2016-03-18T05:36:15.186Z,216
2016-03-18T05:37:15.204Z,232
2016-03-18T05:38:15.207Z,256
2016-03-18T05:39:15.209Z,268
2016-03-18T05:40:15.211Z,280
2016-03-18T05:41:15.229Z,300
2016-03-18T05:42:15.248Z,324
2016-03-18T05:43:15.251Z,344
2016-03-18T05:44:15.270Z,368
2016-03-18T05:45:15.287Z,388
2016-03-18T05:46:15.290Z,408
2016-03-18T05:47:15.308Z,420
2016-03-18T05:48:15.312Z,428
2016-03-18T05:49:15.314Z,436
2016-03-18T05:50:15.348Z,456
2016-03-18T05:51:15.350Z,476
2016-03-18T05:52:15.369Z,492
2016-03-18T05:53:15.341Z,492
2016-03-18T05:54:15.406Z,488
2016-03-18T05:55:15.392Z,480
2016-03-18T05:56:15.411Z,456
2016-03-18T05:57:15.414Z,440
2016-03-18T05:58:15.433Z,432
2016-03-18T05:59:15.435Z,432
2016-03-18T06:00:15.452Z,432
2016-03-18T06:01:15.455Z,436
2016-03-18T06:02:15.474Z,440
2016-03-18T06:03:15.493Z,448
2016-03-18T06:04:15.495Z,460
2016-03-18T06:05:15.513Z,472
2016-03-18T06:06:15.531Z,476
2016-03-18T06:07:15.549Z,500
2016-03-18T06:08:15.552Z,532
2016-03-18T06:09:15.571Z,532
2016-03-18T06:10:15.573Z,548
2016-03-18T06:11:15.560Z,556
2016-03-18T06:12:15.673Z,560
2016-03-18T06:13:15.613Z,564
2016-03-18T06:14:15.615Z,568
2016-03-18T06:15:15.634Z,572
2016-03-18T06:16:15.621Z,576
2016-03-18T06:17:15.640Z,592
2016-03-18T06:18:15.658Z,584
2016-03-18T06:19:14.941Z,652
2016-03-18T06:20:15.678Z,668
2016-03-18T06:21:15.697Z,684
2016-03-18T06:22:14.200Z,704
2016-03-18T06:23:15.717Z,692
2016-03-18T06:24:15.736Z,712
2016-03-18T06:25:15.739Z,732
2016-03-18T06:26:15.742Z,768
2016-03-18T06:27:15.775Z,792
2016-03-18T06:28:15.778Z,812
2016-03-18T06:29:15.812Z,824
2016-03-18T06:30:15.800Z,840
2016-03-18T06:31:15.818Z,856
2016-03-18T06:32:15.821Z,872
2016-03-18T06:33:15.854Z,872
2016-03-18T06:34:15.857Z,892
2016-03-18T06:35:15.875Z,904
2016-03-18T06:36:15.894Z,892
2016-03-18T06:37:15.880Z,832
2016-03-18T06:38:15.915Z,720
2016-03-18T06:39:15.918Z,656
2016-03-18T06:40:15.920Z,736
2016-03-18T06:41:15.938Z,720
2016-03-18T06:42:15.956Z,788
2016-03-18T06:43:15.976Z,744
2016-03-18T06:44:15.978Z,756
2016-03-18T06:45:16.012Z,752
2016-03-18T06:46:15.983Z,732
2016-03-18T06:47:16.001Z,708
2016-03-18T06:48:16.004Z,712
2016-03-18T06:49:16.023Z,724
2016-03-18T06:50:16.040Z,704
2016-03-18T06:51:16.043Z,700
2016-03-18T06:52:30.140Z,744
2016-03-18T06:53:16.128Z,764
2016-03-18T06:54:16.098Z,772
2016-03-18T06:55:16.101Z,720
2016-03-18T06:56:16.092Z,692
2016-03-18T06:57:16.099Z,760
2016-03-18T06:58:16.105Z,816
2016-03-18T06:59:16.095Z,884
2016-03-18T07:00:16.101Z,896
2016-03-18T07:01:16.129Z,924
2016-03-18T07:02:16.097Z,796
2016-03-18T07:03:16.126Z,804
2016-03-18T07:04:16.124Z,948
2016-03-18T07:05:16.139Z,1012
2016-03-18T07:06:16.140Z,1012
2016-03-18T07:07:16.157Z,956
2016-03-18T07:08:16.174Z,976
2016-03-18T07:09:16.175Z,1060
2016-03-18T07:10:16.176Z,1100
2016-03-18T07:11:16.178Z,1004
2016-03-18T07:12:16.197Z,1032
2016-03-18T07:13:16.215Z,1008
2016-03-18T07:14:16.201Z,1020
2016-03-18T07:15:16.234Z,1044
2016-03-18T07:16:16.236Z,1068
2016-03-18T07:17:16.255Z,1156
2016-03-18T07:18:16.257Z,1252
2016-03-18T07:19:16.290Z,1332
2016-03-18T07:20:16.276Z,1264
2016-03-18T07:21:16.312Z,1296
2016-03-18T07:22:16.298Z,1364
2016-03-18T07:23:16.364Z,1372
2016-03-18T07:24:16.319Z,1376
2016-03-18T07:25:16.337Z,1432
2016-03-18T07:26:16.340Z,1384
2016-03-18T07:27:16.359Z,1616
2016-03-18T07:28:16.378Z,1752
2016-03-18T07:29:16.395Z,1628
2016-03-18T07:30:16.397Z,1532
2016-03-18T07:31:16.432Z,1552
2016-03-18T07:32:16.419Z,1592
2016-03-18T07:33:16.437Z,1556
2016-03-18T07:34:16.299Z,1588
2016-03-18T07:35:16.458Z,1604
2016-03-18T07:36:16.461Z,1612
2016-03-18T07:37:16.480Z,1692
2016-03-18T07:38:16.560Z,1620
2016-03-18T07:39:16.485Z,1496
2016-03-18T07:40:16.502Z,1408
2016-03-18T07:41:16.521Z,1340
2016-03-18T07:42:16.524Z,1440
2016-03-18T07:43:16.542Z,1448
2016-03-18T07:44:16.560Z,1456
2016-03-18T07:45:16.563Z,1412
2016-03-18T07:46:16.565Z,1400
2016-03-18T07:47:16.600Z,1440
2016-03-18T07:48:16.602Z,1600
2016-03-18T07:49:16.605Z,1704
2016-03-18T07:50:16.623Z,1928
2016-03-18T07:51:16.642Z,2056
2016-03-18T07:52:16.629Z,2024
2016-03-18T07:53:16.709Z,1948
2016-03-18T07:54:16.665Z,1736
2016-03-18T07:55:16.684Z,1636
2016-03-18T07:56:16.687Z,1584
2016-03-18T07:57:16.721Z,1592
2016-03-18T07:58:16.708Z,1564
2016-03-18T07:59:16.725Z,1540
2016-03-18T08:00:16.729Z,1568
2016-03-18T08:01:16.747Z,1628
2016-03-18T08:02:16.750Z,1692
2016-03-18T08:03:16.768Z,1644
2016-03-18T08:04:16.770Z,1576
2016-03-18T08:05:16.805Z,1616
2016-03-18T08:06:16.775Z,1536
2016-03-18T08:07:16.826Z,1508
2016-03-18T08:08:16.828Z,1536
2016-03-18T08:09:16.674Z,1648
2016-03-18T08:10:16.865Z,1676
2016-03-18T08:11:16.868Z,1660
2016-03-18T08:12:16.901Z,1784
2016-03-18T08:13:16.888Z,1764
2016-03-18T08:14:16.938Z,1820
2016-03-18T08:15:16.924Z,1892
2016-03-18T08:16:16.897Z,1972
2016-03-18T08:17:16.962Z,2028
2016-03-18T08:18:16.933Z,2000
2016-03-18T08:19:16.967Z,2064
2016-03-18T08:20:16.970Z,2064
2016-03-18T08:21:16.988Z,2004
2016-03-18T08:22:16.990Z,2088
2016-03-18T08:23:16.993Z,2136
2016-03-18T08:24:17.043Z,2164
2016-03-18T08:25:17.030Z,2124
2016-03-18T08:26:17.127Z,2164
2016-03-18T08:27:17.051Z,2200
2016-03-18T08:28:17.069Z,2164
2016-03-18T08:29:16.917Z,2140
2016-03-18T08:30:17.075Z,2096
2016-03-18T08:31:17.140Z,2092
2016-03-18T08:32:17.111Z,2060
2016-03-18T08:33:17.114Z,2048
2016-03-18T08:34:17.147Z,2008
2016-03-18T08:35:17.151Z,1952
2016-03-18T08:36:17.185Z,1988
2016-03-18T08:37:17.172Z,2024
2016-03-18T08:38:17.190Z,2100
2016-03-18T08:39:17.177Z,2060
2016-03-18T08:40:17.211Z,2040
2016-03-18T08:41:17.229Z,2084
2016-03-18T08:42:17.232Z,2172
2016-03-18T08:43:16.469Z,2128
2016-03-18T08:44:17.253Z,2104
2016-03-18T08:45:17.288Z,2068
2016-03-18T08:46:17.290Z,2092
2016-03-18T08:47:17.307Z,1964
2016-03-18T08:48:17.296Z,1968
2016-03-18T08:49:17.298Z,1964
2016-03-18T08:50:17.315Z,2016
2016-03-18T08:51:17.366Z,2076
2016-03-18T08:52:17.353Z,2080
2016-03-18T08:53:17.340Z,2096
2016-03-18T08:54:17.374Z,2072
2016-03-18T08:55:17.392Z,2120
2016-03-18T08:56:17.409Z,2172
2016-03-18T08:57:17.429Z,2228
2016-03-18T08:58:17.415Z,2200
2016-03-18T08:59:17.433Z,2124
2016-03-18T09:00:17.467Z,2176
2016-03-18T09:01:17.455Z,2236
2016-03-18T09:02:17.489Z,2292
2016-03-18T09:03:17.476Z,2316
2016-03-18T09:04:17.494Z,2304
2016-03-18T09:05:17.513Z,2284
2016-03-18T09:06:17.547Z,2324
2016-03-18T09:07:17.533Z,2312
2016-03-18T09:08:17.567Z,2328
2016-03-18T09:09:17.569Z,2364
2016-03-18T09:10:17.589Z,2396
2016-03-18T09:11:17.591Z,2468
2016-03-18T09:12:17.625Z,2516
2016-03-18T09:13:17.613Z,2660
2016-03-18T09:14:17.630Z,2752
2016-03-18T09:15:17.633Z,2656
2016-03-18T09:16:17.668Z,2620
2016-03-18T09:17:17.638Z,2608
2016-03-18T09:18:17.688Z,2668
2016-03-18T09:19:17.659Z,2796
2016-03-18T09:20:17.709Z,2784
2016-03-18T09:21:17.712Z,2764
2016-03-18T09:22:17.715Z,2928
2016-03-18T09:23:17.748Z,2896
2016-03-18T09:24:17.735Z,2876
2016-03-18T09:25:17.754Z,2916
2016-03-18T09:26:17.787Z,2880
2016-03-18T09:27:17.775Z,2824
2016-03-18T09:28:17.778Z,2964
2016-03-18T09:29:17.843Z,3020
2016-03-18T09:30:17.814Z,3248
2016-03-18T09:31:17.817Z,3116
2016-03-18T09:32:17.867Z,3056
2016-03-18T09:33:17.884Z,3104
2016-03-18T09:34:17.872Z,3216
2016-03-18T09:35:17.889Z,3452
2016-03-18T09:36:17.893Z,3296
2016-03-18T09:37:17.895Z,3148
2016-03-18T09:38:17.930Z,3276
2016-03-18T09:39:17.916Z,3148
2016-03-18T09:40:17.935Z,3112
2016-03-18T09:41:17.953Z,3404
2016-03-18T09:42:17.971Z,3428
2016-03-18T09:43:18.036Z,3176
2016-03-18T09:44:17.993Z,3008
2016-03-18T09:45:18.010Z,2892
2016-03-18T09:46:18.030Z,2964
2016-03-18T09:47:18.047Z,3296
2016-03-18T09:48:18.034Z,3388
2016-03-18T09:49:18.132Z,3180
2016-03-18T09:50:18.102Z,3192
2016-03-18T09:51:18.104Z,3192
2016-03-18T09:52:18.093Z,3128
2016-03-18T09:53:18.110Z,3048
2016-03-18T09:54:18.113Z,3124
2016-03-18T09:55:18.132Z,3028
2016-03-18T09:56:18.150Z,3104
2016-03-18T09:57:17.434Z,3252
2016-03-18T09:58:18.170Z,3260
2016-03-18T09:59:18.173Z,3272
2016-03-18T10:00:17.441Z,3132
2016-03-18T10:01:18.209Z,2956
2016-03-18T10:02:18.228Z,2940
2016-03-18T10:03:18.247Z,2876
2016-03-18T10:04:18.249Z,2744
2016-03-18T10:05:18.253Z,2728
2016-03-18T10:06:18.270Z,2696
2016-03-18T10:07:18.319Z,2716
2016-03-18T10:08:18.339Z,2800
2016-03-18T10:09:18.310Z,2848
2016-03-18T10:10:18.297Z,2908
2016-03-18T10:11:18.347Z,3036
2016-03-18T10:12:18.349Z,3100
2016-03-18T10:13:18.430Z,3136
2016-03-18T10:14:18.432Z,3084
2016-03-18T10:15:18.388Z,3076
2016-03-18T10:16:18.375Z,3144
2016-03-18T10:17:18.440Z,3120
2016-03-18T10:18:18.428Z,2968
2016-03-18T10:19:18.446Z,2860
2016-03-18T10:20:18.449Z,2848
2016-03-18T10:21:18.482Z,2968
2016-03-18T10:22:18.485Z,2996
2016-03-18T10:23:18.487Z,3040
2016-03-18T10:24:18.490Z,3048
2016-03-18T10:25:18.509Z,3160
2016-03-18T10:26:18.542Z,3124
2016-03-18T10:27:18.530Z,2916
2016-03-18T10:28:18.579Z,2808
2016-03-18T10:29:18.567Z,2888
2016-03-18T10:30:18.569Z,3036
2016-03-18T10:31:18.603Z,2992
2016-03-18T10:32:18.652Z,2824
2016-03-18T10:33:18.625Z,2960
2016-03-18T10:34:18.628Z,2908
2016-03-18T10:35:18.630Z,2760
2016-03-18T10:36:18.664Z,3036
2016-03-18T10:37:18.666Z,3028
2016-03-18T10:38:18.544Z,3044
2016-03-18T10:39:18.687Z,2912
2016-03-18T10:40:18.705Z,2924
2016-03-18T10:41:18.724Z,2968
2016-03-18T10:42:18.727Z,2900
2016-03-18T10:43:18.745Z,2856
2016-03-18T10:44:18.763Z,2828
2016-03-18T10:45:18.766Z,2880
2016-03-18T10:46:18.768Z,2808
2016-03-18T10:47:18.802Z,2820
2016-03-18T10:48:18.821Z,2960
2016-03-18T10:49:18.823Z,2928
2016-03-18T10:50:18.842Z,2776
2016-03-18T10:51:18.860Z,2800
2016-03-18T10:52:18.862Z,2780
2016-03-18T10:53:18.866Z,2748
2016-03-18T10:54:18.993Z,2768
2016-03-18T10:55:18.902Z,2756
2016-03-18T10:56:18.890Z,2660
2016-03-18T10:57:18.923Z,2696
2016-03-18T10:58:18.910Z,2688
2016-03-18T10:59:18.976Z,2772
2016-03-18T11:00:18.962Z,2724
2016-03-18T11:01:18.981Z,2680
2016-03-18T11:02:18.968Z,2688
2016-03-18T11:03:19.033Z,2672
2016-03-18T11:04:19.020Z,2684
2016-03-18T11:05:19.039Z,2576
2016-03-18T11:06:19.056Z,2580
2016-03-18T11:07:19.059Z,2640
2016-03-18T11:08:19.062Z,2724
2016-03-18T11:09:19.111Z,2652
2016-03-18T11:10:19.099Z,2744
2016-03-18T11:11:19.102Z,2816
2016-03-18T11:12:19.104Z,2836
2016-03-18T11:13:19.122Z,2740
2016-03-18T11:14:19.141Z,2680
2016-03-18T11:15:19.144Z,2668
2016-03-18T11:16:19.161Z,2800
2016-03-18T11:17:19.196Z,2888
2016-03-18T11:18:19.199Z,2840
2016-03-18T11:19:19.216Z,2776
2016-03-18T11:20:19.235Z,2800
2016-03-18T11:21:19.238Z,2816
2016-03-18T11:22:19.241Z,2972
2016-03-18T11:23:19.290Z,2856
2016-03-18T11:24:19.215Z,2800
2016-03-18T11:25:19.279Z,2844
2016-03-18T11:26:18.548Z,2728
2016-03-18T11:27:19.301Z,2724
2016-03-18T11:28:19.319Z,2624
2016-03-18T11:29:19.353Z,2688
2016-03-18T11:30:19.355Z,2840
2016-03-18T11:31:19.406Z,2756
2016-03-18T11:32:19.376Z,2880
2016-03-18T11:33:19.395Z,2928
2016-03-18T11:34:19.397Z,3064
2016-03-18T11:35:19.431Z,2916
2016-03-18T11:36:19.419Z,2844
2016-03-18T11:37:19.452Z,2768
2016-03-18T11:38:19.439Z,2712
2016-03-18T11:39:19.317Z,2668
2016-03-18T11:40:19.492Z,2688
2016-03-18T11:41:19.494Z,2724
2016-03-18T11:42:19.466Z,2712
2016-03-18T11:43:19.531Z,2704
2016-03-18T11:44:19.534Z,2688
2016-03-18T11:45:19.552Z,2640
2016-03-18T11:46:19.539Z,2628
2016-03-18T11:47:19.605Z,2660
2016-03-18T11:48:19.591Z,2600
2016-03-18T11:49:19.594Z,2624
2016-03-18T11:50:19.612Z,2740
2016-03-18T11:51:19.600Z,2816
2016-03-18T11:52:19.649Z,2696
2016-03-18T11:53:19.651Z,2764
2016-03-18T11:54:19.670Z,2836
2016-03-18T11:55:19.688Z,3012
2016-03-18T11:56:19.676Z,3112
2016-03-18T11:57:19.699Z,3284
2016-03-18T11:58:19.732Z,3136
2016-03-18T11:59:19.720Z,3052
2016-03-18T12:00:19.706Z,3004
2016-03-18T12:01:19.740Z,2856
2016-03-18T12:02:19.775Z,2944
2016-03-18T12:03:19.761Z,2996
2016-03-18T12:04:19.795Z,2928
2016-03-18T12:05:19.783Z,2944
2016-03-18T12:06:19.817Z,2892
2016-03-18T12:07:19.820Z,2892
2016-03-18T12:08:19.853Z,2996
2016-03-18T12:09:19.856Z,3084
2016-03-18T12:10:19.858Z,3128
2016-03-18T12:11:19.892Z,3044
2016-03-18T12:12:19.895Z,3056
2016-03-18T12:13:19.913Z,3004
2016-03-18T12:14:19.932Z,3008
2016-03-18T12:15:19.949Z,3076
2016-03-18T12:16:19.922Z,3232
2016-03-18T12:17:19.955Z,3212
2016-03-18T12:18:19.974Z,3232
2016-03-18T12:19:20.008Z,3120
2016-03-18T12:20:19.995Z,3024
2016-03-18T12:21:20.044Z,2928
2016-03-18T12:22:20.032Z,2872
2016-03-18T12:23:20.050Z,2860
2016-03-18T12:24:20.052Z,2760
2016-03-18T12:25:20.055Z,2696
2016-03-18T12:26:20.073Z,2772
2016-03-18T12:27:20.076Z,2800
2016-03-18T12:28:20.079Z,2832
2016-03-18T12:29:20.112Z,2912
2016-03-18T12:30:20.131Z,2940
2016-03-18T12:31:20.134Z,2856
2016-03-18T12:32:20.153Z,2896
2016-03-18T12:33:20.201Z,2892
2016-03-18T12:34:20.158Z,2748
2016-03-18T12:35:20.192Z,2808
2016-03-18T12:36:20.226Z,2852
2016-03-18T12:37:20.228Z,2960
2016-03-18T12:38:20.231Z,2880
2016-03-18T12:39:20.233Z,2808
2016-03-18T12:40:20.252Z,2692
2016-03-18T12:41:20.270Z,2688
2016-03-18T12:42:20.273Z,2660
2016-03-18T12:43:20.292Z,2684
2016-03-18T12:44:20.325Z,2624
2016-03-18T12:45:20.328Z,2584
2016-03-18T12:46:20.330Z,2616
2016-03-18T12:47:20.364Z,2784
2016-03-18T12:48:20.352Z,2832
2016-03-18T12:49:20.385Z,2792
2016-03-18T12:50:20.404Z,2752
2016-03-18T12:51:20.391Z,2776
2016-03-18T12:52:20.410Z,2824
2016-03-18T12:53:20.287Z,2888
2016-03-18T12:54:20.462Z,3016
2016-03-18T12:55:20.464Z,2864
2016-03-18T12:56:20.482Z,2820
2016-03-18T12:57:20.501Z,2876
2016-03-18T12:58:20.504Z,2792
2016-03-18T12:59:20.521Z,2788
2016-03-18T13:00:20.556Z,2800
2016-03-18T13:01:20.526Z,2712
2016-03-18T13:02:20.545Z,2656
2016-03-18T13:03:20.563Z,2652
2016-03-18T13:04:20.567Z,2648
2016-03-18T13:05:20.584Z,2568
2016-03-18T13:06:20.603Z,2636
2016-03-18T13:07:20.606Z,2608
2016-03-18T13:08:20.639Z,2584
2016-03-18T13:09:20.658Z,2724
2016-03-18T13:10:20.659Z,2744
2016-03-18T13:11:20.662Z,2788
2016-03-18T13:12:20.679Z,2568
2016-03-18T13:13:20.667Z,2500
2016-03-18T13:14:20.701Z,2576
2016-03-18T13:15:20.703Z,2644
2016-03-18T13:16:20.737Z,2732
2016-03-18T13:17:20.739Z,2728
2016-03-18T13:18:20.742Z,2792
2016-03-18T13:19:20.761Z,2840
2016-03-18T13:20:20.795Z,2776
2016-03-18T13:21:20.814Z,2728
2016-03-18T13:22:20.801Z,2660
2016-03-18T13:23:20.851Z,2632
2016-03-18T13:24:20.853Z,2620
2016-03-18T13:25:20.840Z,2560
2016-03-18T13:26:20.874Z,2532
2016-03-18T13:27:20.861Z,2604
2016-03-18T13:28:20.895Z,2524
2016-03-18T13:29:20.897Z,2464
2016-03-18T13:30:20.932Z,2428
2016-03-18T13:31:20.919Z,2408
2016-03-18T13:32:20.937Z,2372
2016-03-18T13:33:20.955Z,2316
2016-03-18T13:34:20.208Z,2372
2016-03-18T13:35:20.976Z,2380
2016-03-18T13:36:20.979Z,2432
2016-03-18T13:37:21.013Z,2472
2016-03-18T13:38:21.016Z,2396
2016-03-18T13:39:21.034Z,2392
2016-03-18T13:40:21.052Z,2428
2016-03-18T13:41:21.071Z,2412
2016-03-18T13:42:21.089Z,2436
2016-03-18T13:43:21.107Z,2460
2016-03-18T13:44:21.110Z,2440
2016-03-18T13:45:21.128Z,2412
2016-03-18T13:46:21.131Z,2276
2016-03-18T13:47:21.148Z,2280
2016-03-18T13:48:21.198Z,2408
2016-03-18T13:49:21.170Z,2540
2016-03-18T13:50:21.188Z,2288
2016-03-18T13:51:21.191Z,2268
2016-03-18T13:52:21.241Z,2412
2016-03-18T13:53:21.244Z,2356
2016-03-18T13:54:21.231Z,2268